sensor_id;sensor_type;location;lat;lon;timestamp;pressure;altitude;pressure_sealevel;temperature;humidity
22047;BME280;11187;49.412;20.956;2023-09-07T00:00:52;96006.09;;;11.89;100.00
22047;BME280;11187;49.412;20.956;2023-09-07T00:03:26;96001.81;;;11.90;100.00
22047;BME280;11187;49.412;20.956;2023-09-07T00:06:12;96001.84;;;11.84;100.00
22047;BME280;11187;49.412;20.956;2023-09-07T00:08:46;96004.44;;;11.79;100.00
22047;BME280;11187;49.412;20.956;2023-09-07T00:11:32;96007.84;;;11.78;100.00
22047;BME280;11187;49.412;20.956;2023-09-07T00:14:06;96013.03;;;11.74;100.00
22047;BME280;11187;49.412;20.956;2023-09-07T00:16:59;96008.75;;;11.77;100.00
22047;BME280;11187;49.412;20.956;2023-09-07T00:19:53;96008.75;;;11.77;100.00
22047;BME280;11187;49.412;20.956;2023-09-07T00:22:30;96002.78;;;11.74;100.00
22047;BME280;11187;49.412;20.956;2023-09-07T00:25:16;96004.53;;;11.70;100.00
22047;BME280;11187;49.412;20.956;2023-09-07T00:27:51;96006.22;;;11.74;100.00
22047;BME280;11187;49.412;20.956;2023-09-07T00:30:44;96006.22;;;11.74;100.00
22047;BME280;11187;49.412;20.956;2023-09-07T00:33:38;96007.94;;;11.70;100.00
22047;BME280;11187;49.412;20.956;2023-09-07T00:36:12;95999.41;;;11.68;100.00
22047;BME280;11187;49.412;20.956;2023-09-07T00:39:06;95995.94;;;11.71;100.00
22047;BME280;11187;49.412;20.956;2023-09-07T00:41:40;95995.13;;;11.69;100.00
22047;BME280;11187;49.412;20.956;2023-09-07T00:44:33;95996.03;;;11.62;100.00
22047;BME280;11187;49.412;20.956;2023-09-07T00:47:30;95997.75;;;11.63;100.00
22047;BME280;11187;49.412;20.956;2023-09-07T00:50:23;95990.03;;;11.67;100.00
22047;BME280;11187;49.412;20.956;2023-09-07T00:53:18;95989.13;;;11.70;100.00
22047;BME280;11187;49.412;20.956;2023-09-07T00:55:52;95989.19;;;11.65;100.00
22047;BME280;11187;49.412;20.956;2023-09-07T00:58:40;95994.34;;;11.59;100.00
22047;BME280;11187;49.412;20.956;2023-09-07T01:01:14;95995.22;;;11.58;100.00
22047;BME280;11187;49.412;20.956;2023-09-07T01:04:00;95992.63;;;11.60;100.00
22047;BME280;11187;49.412;20.956;2023-09-07T01:06:40;95996.94;;;11.55;100.00
22047;BME280;11187;49.412;20.956;2023-09-07T01:09:36;96000.34;;;11.57;100.00
22047;BME280;11187;49.412;20.956;2023-09-07T01:12:33;95999.50;;;11.56;100.00
22047;BME280;11187;49.412;20.956;2023-09-07T01:15:28;95993.50;;;11.56;100.00
22047;BME280;11187;49.412;20.956;2023-09-07T01:18:05;95982.47;;;11.47;100.00
22047;BME280;11187;49.412;20.956;2023-09-07T01:21:17;95991.94;;;11.39;100.00
22047;BME280;11187;49.412;20.956;2023-09-07T01:24:13;95989.41;;;11.35;100.00
22047;BME280;11187;49.412;20.956;2023-09-07T01:27:09;95991.16;;;11.31;100.00
22047;BME280;11187;49.412;20.956;2023-09-07T01:30:03;95991.16;;;11.28;100.00
22047;BME280;11187;49.412;20.956;2023-09-07T01:32:56;95991.22;;;11.20;100.00
22047;BME280;11187;49.412;20.956;2023-09-07T01:35:31;95990.38;;;11.17;100.00
22047;BME280;11187;49.412;20.956;2023-09-07T01:38:25;95990.41;;;11.14;100.00
22047;BME280;11187;49.412;20.956;2023-09-07T01:41:19;95992.09;;;11.18;100.00
22047;BME280;11187;49.412;20.956;2023-09-07T01:44:13;95992.06;;;11.22;100.00
22047;BME280;11187;49.412;20.956;2023-09-07T01:47:07;95996.34;;;11.20;100.00
22047;BME280;11187;49.412;20.956;2023-09-07T01:49:41;96000.66;;;11.15;100.00
22047;BME280;11187;49.412;20.956;2023-09-07T01:52:29;95998.97;;;11.11;100.00
22047;BME280;11187;49.412;20.956;2023-09-07T01:55:04;95993.84;;;11.08;100.00
22047;BME280;11187;49.412;20.956;2023-09-07T01:57:57;95993.88;;;11.03;100.00
22047;BME280;11187;49.412;20.956;2023-09-07T02:00:31;95990.47;;;11.04;100.00
22047;BME280;11187;49.412;20.956;2023-09-07T02:03:25;95988.75;;;11.05;100.00
22047;BME280;11187;49.412;20.956;2023-09-07T02:06:19;95992.19;;;11.01;100.00
22047;BME280;11187;49.412;20.956;2023-09-07T02:09:13;95991.31;;;11.03;100.00
22047;BME280;11187;49.412;20.956;2023-09-07T02:12:08;95990.44;;;11.07;100.00
22047;BME280;11187;49.412;20.956;2023-09-07T02:14:42;95983.63;;;11.03;100.00
22047;BME280;11187;49.412;20.956;2023-09-07T02:17:35;95981.94;;;11.01;100.00
22047;BME280;11187;49.412;20.956;2023-09-07T02:20:32;95984.47;;;11.05;100.00
22047;BME280;11187;49.412;20.956;2023-09-07T02:23:29;95981.91;;;11.07;100.00
22047;BME280;11187;49.412;20.956;2023-09-07T02:26:24;95981.91;;;11.05;100.00
22047;BME280;11187;49.412;20.956;2023-09-07T02:29:17;95976.88;;;10.95;100.00
22047;BME280;11187;49.412;20.956;2023-09-07T02:32:11;95979.44;;;10.92;100.00
22047;BME280;11187;49.412;20.956;2023-09-07T02:34:45;95975.16;;;10.94;100.00
22047;BME280;11187;49.412;20.956;2023-09-07T02:37:31;95972.59;;;10.94;100.00
22047;BME280;11187;49.412;20.956;2023-09-07T02:40:05;95977.72;;;10.94;100.00
22047;BME280;11187;49.412;20.956;2023-09-07T02:42:55;95976.03;;;10.91;100.00
22047;BME280;11187;49.412;20.956;2023-09-07T02:45:29;95974.38;;;10.84;100.00
22047;BME280;11187;49.412;20.956;2023-09-07T02:48:22;95971.81;;;10.76;100.00
22047;BME280;11187;49.412;20.956;2023-09-07T02:51:03;95982.91;;;10.78;100.00
22047;BME280;11187;49.412;20.956;2023-09-07T02:53:51;95984.66;;;10.75;100.00
22047;BME280;11187;49.412;20.956;2023-09-07T02:56:24;95976.97;;;10.73;100.00
22047;BME280;11187;49.412;20.956;2023-09-07T02:59:17;95981.25;;;10.74;100.00
22047;BME280;11187;49.412;20.956;2023-09-07T03:02:11;95977.84;;;10.71;100.00
22047;BME280;11187;49.412;20.956;2023-09-07T03:04:45;95971.06;;;10.63;100.00
22047;BME280;11187;49.412;20.956;2023-09-07T03:07:33;95973.66;;;10.57;100.00
22047;BME280;11187;49.412;20.956;2023-09-07T03:10:20;95973.66;;;10.57;100.00
22047;BME280;11187;49.412;20.956;2023-09-07T03:13:17;95976.22;;;10.59;100.00
22047;BME280;11187;49.412;20.956;2023-09-07T03:16:11;95982.19;;;10.61;100.00
22047;BME280;11187;49.412;20.956;2023-09-07T03:19:05;95984.75;;;10.56;100.00
22047;BME280;11187;49.412;20.956;2023-09-07T03:21:59;95987.31;;;10.56;100.00
22047;BME280;11187;49.412;20.956;2023-09-07T03:24:53;95983.88;;;10.56;100.00
22047;BME280;11187;49.412;20.956;2023-09-07T03:27:47;95991.59;;;10.53;100.00
22047;BME280;11187;49.412;20.956;2023-09-07T03:30:21;95989.91;;;10.50;100.00
22047;BME280;11187;49.412;20.956;2023-09-07T03:33:07;95991.59;;;10.53;100.00
22047;BME280;11187;49.412;20.956;2023-09-07T03:35:41;95994.16;;;10.54;100.00
22047;BME280;11187;49.412;20.956;2023-09-07T03:38:27;95993.34;;;10.40;100.00
22047;BME280;11187;49.412;20.956;2023-09-07T03:41:01;95993.34;;;10.35;100.00
22047;BME280;11187;49.412;20.956;2023-09-07T03:43:54;95986.53;;;10.33;100.00
22047;BME280;11187;49.412;20.956;2023-09-07T03:46:48;95992.50;;;10.24;100.00
22047;BME280;11187;49.412;20.956;2023-09-07T03:49:25;95999.34;;;10.20;100.00
22047;BME280;11187;49.412;20.956;2023-09-07T03:52:18;96005.31;;;10.15;100.00
22047;BME280;11187;49.412;20.956;2023-09-07T03:55:14;95998.50;;;10.17;100.00
22047;BME280;11187;49.412;20.956;2023-09-07T03:58:11;95998.50;;;10.23;100.00
22047;BME280;11187;49.412;20.956;2023-09-07T04:00:44;95999.31;;;10.23;100.00
22047;BME280;11187;49.412;20.956;2023-09-07T04:03:38;96004.44;;;10.28;100.00
22047;BME280;11187;49.412;20.956;2023-09-07T04:06:13;96000.19;;;10.27;100.00
22047;BME280;11187;49.412;20.956;2023-09-07T04:09:07;96006.16;;;10.24;100.00
22047;BME280;11187;49.412;20.956;2023-09-07T04:12:01;96012.13;;;10.28;100.00
22047;BME280;11187;49.412;20.956;2023-09-07T04:14:38;96011.31;;;10.29;100.00
22047;BME280;11187;49.412;20.956;2023-09-07T04:17:32;96007.88;;;10.29;100.00
22047;BME280;11187;49.412;20.956;2023-09-07T04:20:32;96014.66;;;10.28;100.00
22047;BME280;11187;49.412;20.956;2023-09-07T04:23:06;96007.03;;;10.27;100.00
22047;BME280;11187;49.412;20.956;2023-09-07T04:26:10;96009.59;;;10.22;100.00
22047;BME280;11187;49.412;20.956;2023-09-07T04:28:46;96013.00;;;10.15;100.00
22047;BME280;11187;49.412;20.956;2023-09-07T04:31:32;96024.09;;;10.12;100.00
22047;BME280;11187;49.412;20.956;2023-09-07T04:34:06;96017.28;;;10.14;100.00
22047;BME280;11187;49.412;20.956;2023-09-07T04:36:59;96016.41;;;10.20;100.00
22047;BME280;11187;49.412;20.956;2023-09-07T04:39:53;96011.28;;;10.18;100.00
22047;BME280;11187;49.412;20.956;2023-09-07T04:42:27;96015.53;;;10.21;100.00
22047;BME280;11187;49.412;20.956;2023-09-07T04:45:14;96015.53;;;10.21;100.00
22047;BME280;11187;49.412;20.956;2023-09-07T04:47:49;96019.84;;;10.22;100.00
22047;BME280;11187;49.412;20.956;2023-09-07T04:50:36;96018.97;;;10.20;100.00
22047;BME280;11187;49.412;20.956;2023-09-07T04:53:10;96018.09;;;10.21;100.00
22047;BME280;11187;49.412;20.956;2023-09-07T04:55:57;96008.72;;;10.18;100.00
22047;BME280;11187;49.412;20.956;2023-09-07T04:58:30;96018.13;;;10.16;100.00
22047;BME280;11187;49.412;20.956;2023-09-07T05:01:23;96009.59;;;10.13;100.00
22047;BME280;11187;49.412;20.956;2023-09-07T05:04:20;96013.84;;;10.17;100.00
22047;BME280;11187;49.412;20.956;2023-09-07T05:07:16;96024.09;;;10.18;100.00
22047;BME280;11187;49.412;20.956;2023-09-07T05:09:50;96021.53;;;10.18;100.00
22047;BME280;11187;49.412;20.956;2023-09-07T05:12:36;96019.84;;;10.10;100.00
22047;BME280;11187;49.412;20.956;2023-09-07T05:15:10;96012.13;;;10.19;100.00
22047;BME280;11187;49.412;20.956;2023-09-07T05:17:57;96019.84;;;10.31;100.00
22047;BME280;11187;49.412;20.956;2023-09-07T05:20:31;96017.22;;;10.43;100.00
22047;BME280;11187;49.412;20.956;2023-09-07T05:23:25;96019.72;;;10.57;100.00
22047;BME280;11187;49.412;20.956;2023-09-07T05:26:22;96023.09;;;10.75;100.00
22047;BME280;11187;49.412;20.956;2023-09-07T05:29:18;96013.63;;;10.89;100.00
22047;BME280;11187;49.412;20.956;2023-09-07T05:31:53;96016.13;;;10.97;100.00
22047;BME280;11187;49.412;20.956;2023-09-07T05:34:46;96013.53;;;11.06;100.00
22047;BME280;11187;49.412;20.956;2023-09-07T05:37:20;96022.00;;;11.16;100.00
22047;BME280;11187;49.412;20.956;2023-09-07T05:40:07;96015.97;;;11.23;100.00
22047;BME280;11187;49.412;20.956;2023-09-07T05:42:40;96021.88;;;11.33;100.00
22047;BME280;11187;49.412;20.956;2023-09-07T05:45:34;96015.81;;;11.46;100.00
22047;BME280;11187;49.412;20.956;2023-09-07T05:48:09;96017.44;;;11.58;100.00
22047;BME280;11187;49.412;20.956;2023-09-07T05:51:01;96015.66;;;11.67;100.00
22047;BME280;11187;49.412;20.956;2023-09-07T05:53:55;96021.53;;;11.83;100.00
22047;BME280;11187;49.412;20.956;2023-09-07T05:56:49;96023.06;;;12.01;100.00
22047;BME280;11187;49.412;20.956;2023-09-07T05:59:23;96020.34;;;12.18;100.00
22047;BME280;11187;49.412;20.956;2023-09-07T06:02:09;96023.63;;;12.34;100.00
22047;BME280;11187;49.412;20.956;2023-09-07T06:04:43;96021.78;;;12.47;100.00
22047;BME280;11187;49.412;20.956;2023-09-07T06:07:36;96019.91;;;12.60;100.00
22047;BME280;11187;49.412;20.956;2023-09-07T06:10:30;96019.72;;;12.75;100.00
22047;BME280;11187;49.412;20.956;2023-09-07T06:13:24;96016.13;;;12.88;100.00
22047;BME280;11187;49.412;20.956;2023-09-07T06:16:00;96022.84;;;12.99;100.00
22047;BME280;11187;49.412;20.956;2023-09-07T06:18:47;96029.56;;;13.09;100.00
22047;BME280;11187;49.412;20.956;2023-09-07T06:21:21;96027.69;;;13.20;100.00
22047;BME280;11187;49.412;20.956;2023-09-07T06:24:08;96025.88;;;13.30;100.00
22047;BME280;11187;49.412;20.956;2023-09-07T06:26:42;96024.91;;;13.39;100.00
22047;BME280;11187;49.412;20.956;2023-09-07T06:29:36;96018.69;;;13.52;100.00
22047;BME280;11187;49.412;20.956;2023-09-07T06:32:30;96025.31;;;13.67;100.00
22047;BME280;11187;49.412;20.956;2023-09-07T06:35:24;96024.16;;;13.85;100.00
22047;BME280;11187;49.412;20.956;2023-09-07T06:38:18;96022.25;;;13.97;100.00
22047;BME280;11187;49.412;20.956;2023-09-07T06:41:12;96022.75;;;14.16;100.00
22047;BME280;11187;49.412;20.956;2023-09-07T06:43:46;96022.59;;;14.26;100.00
22047;BME280;11187;49.412;20.956;2023-09-07T06:46:40;96024.03;;;14.40;100.00
22047;BME280;11187;49.412;20.956;2023-09-07T06:49:13;96021.28;;;14.51;100.00
22047;BME280;11187;49.412;20.956;2023-09-07T06:52:09;96022.06;;;14.56;100.00
22047;BME280;11187;49.412;20.956;2023-09-07T06:54:43;96026.97;;;14.69;100.00
22047;BME280;11187;49.412;20.956;2023-09-07T06:57:31;96026.78;;;14.78;100.00
22047;BME280;11187;49.412;20.956;2023-09-07T07:00:06;96019.00;;;14.81;100.00
22047;BME280;11187;49.412;20.956;2023-09-07T07:03:00;96026.56;;;14.89;100.00
22047;BME280;11187;49.412;20.956;2023-09-07T07:05:55;96016.94;;;14.97;100.00
22047;BME280;11187;49.412;20.956;2023-09-07T07:08:49;96020.03;;;15.13;100.00
22047;BME280;11187;49.412;20.956;2023-09-07T07:11:23;96027.59;;;15.22;100.00
22047;BME280;11187;49.412;20.956;2023-09-07T07:14:16;96025.63;;;15.32;100.00
22047;BME280;11187;49.412;20.956;2023-09-07T07:16:50;96028.81;;;15.43;100.00
22047;BME280;11187;49.412;20.956;2023-09-07T07:19:36;96022.53;;;15.55;100.00
22047;BME280;11187;49.412;20.956;2023-09-07T07:22:10;96023.09;;;15.68;100.00
22047;BME280;11187;49.412;20.956;2023-09-07T07:25:00;96013.31;;;15.82;100.00
22047;BME280;11187;49.412;20.956;2023-09-07T07:27:40;96038.72;;;15.99;100.00
22047;BME280;11187;49.412;20.956;2023-09-07T07:30:27;96016.00;;;16.12;100.00
22047;BME280;11187;49.412;20.956;2023-09-07T07:33:03;96028.56;;;16.25;100.00
22047;BME280;11187;49.412;20.956;2023-09-07T07:35:58;96031.56;;;16.43;100.00
22047;BME280;11187;49.412;20.956;2023-09-07T07:38:32;96030.97;;;16.64;100.00
22047;BME280;11187;49.412;20.956;2023-09-07T07:41:19;96037.13;;;16.91;100.00
22047;BME280;11187;49.412;20.956;2023-09-07T07:43:53;96035.72;;;17.11;100.00
22047;BME280;11187;49.412;20.956;2023-09-07T07:46:39;96032.59;;;17.29;99.32
22047;BME280;11187;49.412;20.956;2023-09-07T07:49:13;96019.84;;;17.51;98.48
22047;BME280;11187;49.412;20.956;2023-09-07T07:52:06;96022.88;;;17.64;97.97
22047;BME280;11187;49.412;20.956;2023-09-07T07:55:00;96031.28;;;17.71;98.38
22047;BME280;11187;49.412;20.956;2023-09-07T07:57:54;96035.34;;;17.80;98.87
22047;BME280;11187;49.412;20.956;2023-09-07T08:00:48;96043.94;;;17.82;96.98
22047;BME280;11187;49.412;20.956;2023-09-07T08:03:44;96030.16;;;18.08;95.38
22047;BME280;11187;49.412;20.956;2023-09-07T08:06:18;96023.88;;;18.15;95.21
22047;BME280;11187;49.412;20.956;2023-09-07T08:09:04;96034.00;;;18.21;95.77
22047;BME280;11187;49.412;20.956;2023-09-07T08:11:38;96039.47;;;18.39;94.40
22047;BME280;11187;49.412;20.956;2023-09-07T08:14:25;96036.63;;;18.46;94.70
22047;BME280;11187;49.412;20.956;2023-09-07T08:16:58;96038.19;;;18.50;94.52
22047;BME280;11187;49.412;20.956;2023-09-07T08:19:45;96036.88;;;18.64;93.35
22047;BME280;11187;49.412;20.956;2023-09-07T08:22:21;96037.16;;;18.81;90.85
22047;BME280;11187;49.412;20.956;2023-09-07T08:25:15;96036.88;;;18.89;91.43
22047;BME280;11187;49.412;20.956;2023-09-07T08:28:09;96036.53;;;18.98;92.13
22047;BME280;11187;49.412;20.956;2023-09-07T08:30:43;96028.34;;;19.09;91.97
22047;BME280;11187;49.412;20.956;2023-09-07T08:33:31;96020.03;;;19.23;89.09
22047;BME280;11187;49.412;20.956;2023-09-07T08:36:08;96021.22;;;19.37;88.71
22047;BME280;11187;49.412;20.956;2023-09-07T08:38:56;96031.34;;;19.44;89.92
22047;BME280;11187;49.412;20.956;2023-09-07T08:41:37;96031.78;;;19.55;87.25
22047;BME280;11187;49.412;20.956;2023-09-07T08:44:42;96032.38;;;19.61;88.12
22047;BME280;11187;49.412;20.956;2023-09-07T08:47:38;96027.00;;;19.66;87.81
22047;BME280;11187;49.412;20.956;2023-09-07T08:50:13;96023.53;;;19.67;88.55
22047;BME280;11187;49.412;20.956;2023-09-07T08:52:59;96025.19;;;19.68;87.45
22047;BME280;11187;49.412;20.956;2023-09-07T08:55:36;96024.94;;;19.76;88.67
22047;BME280;11187;49.412;20.956;2023-09-07T08:58:22;96031.41;;;19.88;89.82
22047;BME280;11187;49.412;20.956;2023-09-07T09:00:56;96024.13;;;19.96;88.60
22047;BME280;11187;49.412;20.956;2023-09-07T09:03:48;96020.94;;;20.10;88.16
22047;BME280;11187;49.412;20.956;2023-09-07T09:06:22;96032.66;;;20.20;86.92
22047;BME280;11187;49.412;20.956;2023-09-07T09:09:25;96026.50;;;20.22;87.81
22047;BME280;11187;49.412;20.956;2023-09-07T09:12:20;96028.09;;;20.25;86.75
22047;BME280;11187;49.412;20.956;2023-09-07T09:14:54;96037.09;;;20.38;87.09
22047;BME280;11187;49.412;20.956;2023-09-07T09:17:49;96033.91;;;20.52;85.92
22047;BME280;11187;49.412;20.956;2023-09-07T09:20:43;96031.97;;;20.57;84.35
22047;BME280;11187;49.412;20.956;2023-09-07T09:23:38;96033.84;;;20.54;84.82
22047;BME280;11187;49.412;20.956;2023-09-07T09:26:32;96031.53;;;20.46;86.19
22047;BME280;11187;49.412;20.956;2023-09-07T09:29:28;96030.06;;;20.40;88.37
22047;BME280;11187;49.412;20.956;2023-09-07T09:32:07;96028.19;;;20.44;87.41
22047;BME280;11187;49.412;20.956;2023-09-07T09:34:54;96028.69;;;20.52;85.81
22047;BME280;11187;49.412;20.956;2023-09-07T09:37:29;96029.25;;;20.60;86.89
22047;BME280;11187;49.412;20.956;2023-09-07T09:40:15;96024.09;;;20.59;87.07
22047;BME280;11187;49.412;20.956;2023-09-07T09:42:54;96027.03;;;20.72;84.74
22047;BME280;11187;49.412;20.956;2023-09-07T09:45:44;96025.84;;;20.79;85.23
22047;BME280;11187;49.412;20.956;2023-09-07T09:48:21;96024.69;;;20.84;86.62
22047;BME280;11187;49.412;20.956;2023-09-07T09:51:08;96020.94;;;20.92;85.46
22047;BME280;11187;49.412;20.956;2023-09-07T09:53:44;96020.78;;;20.95;84.15
22047;BME280;11187;49.412;20.956;2023-09-07T09:56:32;96020.78;;;20.95;85.30
22047;BME280;11187;49.412;20.956;2023-09-07T09:59:07;96034.78;;;20.92;86.05
22047;BME280;11187;49.412;20.956;2023-09-07T10:01:54;96023.75;;;20.87;85.85
22047;BME280;11187;49.412;20.956;2023-09-07T10:04:29;96029.91;;;20.84;86.23
22047;BME280;11187;49.412;20.956;2023-09-07T10:07:43;96022.81;;;20.88;85.64
22047;BME280;11187;49.412;20.956;2023-09-07T10:10:41;96021.00;;;20.90;85.30
22047;BME280;11187;49.412;20.956;2023-09-07T10:13:36;96012.47;;;20.86;85.39
22047;BME280;11187;49.412;20.956;2023-09-07T10:16:11;96007.97;;;20.90;85.08
22047;BME280;11187;49.412;20.956;2023-09-07T10:19:14;96015.00;;;20.88;85.64
22047;BME280;11187;49.412;20.956;2023-09-07T10:22:07;96009.88;;;20.86;86.08
22047;BME280;11187;49.412;20.956;2023-09-07T10:25:03;96011.38;;;20.92;85.93
22047;BME280;11187;49.412;20.956;2023-09-07T10:27:59;96005.53;;;21.06;86.17
22047;BME280;11187;49.412;20.956;2023-09-07T10:31:06;96005.53;;;21.06;84.09
22047;BME280;11187;49.412;20.956;2023-09-07T10:33:41;96010.47;;;21.12;83.93
22047;BME280;11187;49.412;20.956;2023-09-07T10:36:36;96000.94;;;21.11;83.50
22047;BME280;11187;49.412;20.956;2023-09-07T10:39:10;96004.59;;;21.07;82.90
22047;BME280;11187;49.412;20.956;2023-09-07T10:42:04;95997.88;;;21.03;83.81
22047;BME280;11187;49.412;20.956;2023-09-07T10:45:08;95997.22;;;20.98;83.70
22047;BME280;11187;49.412;20.956;2023-09-07T10:47:43;95999.81;;;20.98;84.63
22047;BME280;11187;49.412;20.956;2023-09-07T10:50:46;96003.56;;;20.92;85.77
22047;BME280;11187;49.412;20.956;2023-09-07T10:53:40;95998.34;;;20.92;84.87
22047;BME280;11187;49.412;20.956;2023-09-07T10:56:14;95989.75;;;20.90;85.76
22047;BME280;11187;49.412;20.956;2023-09-07T10:59:07;95993.25;;;20.89;84.86
22047;BME280;11187;49.412;20.956;2023-09-07T11:01:44;95995.88;;;20.89;83.19
22047;BME280;11187;49.412;20.956;2023-09-07T11:04:38;95990.59;;;20.91;84.24
22047;BME280;11187;49.412;20.956;2023-09-07T11:07:12;95988.78;;;20.93;84.36
22047;BME280;11187;49.412;20.956;2023-09-07T11:10:00;95992.22;;;20.93;83.74
22047;BME280;11187;49.412;20.956;2023-09-07T11:12:38;95993.00;;;20.95;85.08
22047;BME280;11187;49.412;20.956;2023-09-07T11:15:24;95996.44;;;20.96;83.69
22047;BME280;11187;49.412;20.956;2023-09-07T11:17:58;95991.16;;;20.97;84.28
22047;BME280;11187;49.412;20.956;2023-09-07T11:20:45;95998.91;;;20.99;84.58
22047;BME280;11187;49.412;20.956;2023-09-07T11:23:21;95991.94;;;20.99;83.35
22047;BME280;11187;49.412;20.956;2023-09-07T11:26:09;95992.88;;;20.98;83.08
22047;BME280;11187;49.412;20.956;2023-09-07T11:28:46;95990.97;;;21.02;82.56
22047;BME280;11187;49.412;20.956;2023-09-07T11:31:40;95995.19;;;21.04;83.57
22047;BME280;11187;49.412;20.956;2023-09-07T11:34:14;95996.09;;;21.03;83.21
22047;BME280;11187;49.412;20.956;2023-09-07T11:37:03;95987.47;;;21.03;82.67
22047;BME280;11187;49.412;20.956;2023-09-07T11:39:36;95993.50;;;21.03;83.18
22047;BME280;11187;49.412;20.956;2023-09-07T11:42:22;95984.91;;;21.01;83.29
22047;BME280;11187;49.412;20.956;2023-09-07T11:44:56;95988.41;;;21.00;82.96
22047;BME280;11187;49.412;20.956;2023-09-07T11:47:49;95988.28;;;21.03;81.16
22047;BME280;11187;49.412;20.956;2023-09-07T11:50:24;95983.72;;;21.09;83.03
22047;BME280;11187;49.412;20.956;2023-09-07T11:53:17;95983.72;;;21.09;82.82
22047;BME280;11187;49.412;20.956;2023-09-07T11:56:11;95986.38;;;21.07;82.18
22047;BME280;11187;49.412;20.956;2023-09-07T11:59:05;95976.19;;;21.02;82.00
22047;BME280;11187;49.412;20.956;2023-09-07T12:01:59;95987.59;;;21.00;83.60
22047;BME280;11187;49.412;20.956;2023-09-07T12:04:53;95984.00;;;21.02;82.60
22047;BME280;11187;49.412;20.956;2023-09-07T12:07:27;95980.53;;;21.02;83.51
22047;BME280;11187;49.412;20.956;2023-09-07T12:10:13;95989.41;;;20.98;83.92
22047;BME280;11187;49.412;20.956;2023-09-07T12:12:47;95982.53;;;20.97;82.71
22047;BME280;11187;49.412;20.956;2023-09-07T12:15:40;95972.22;;;20.94;82.16
22047;BME280;11187;49.412;20.956;2023-09-07T12:18:34;95979.16;;;20.95;84.12
22047;BME280;11187;49.412;20.956;2023-09-07T12:21:28;95980.75;;;20.97;83.41
22047;BME280;11187;49.412;20.956;2023-09-07T12:24:02;95978.16;;;20.97;83.17
22047;BME280;11187;49.412;20.956;2023-09-07T12:26:49;95966.97;;;20.95;82.57
22047;BME280;11187;49.412;20.956;2023-09-07T12:29:23;95964.41;;;20.94;82.92
22047;BME280;11187;49.412;20.956;2023-09-07T12:32:17;95974.84;;;20.94;81.92
22047;BME280;11187;49.412;20.956;2023-09-07T12:34:50;95972.16;;;20.95;82.01
22047;BME280;11187;49.412;20.956;2023-09-07T12:37:37;95970.34;;;20.97;82.71
22047;BME280;11187;49.412;20.956;2023-09-07T12:40:11;95970.41;;;20.96;83.39
22047;BME280;11187;49.412;20.956;2023-09-07T12:43:04;95967.03;;;20.94;83.58
22047;BME280;11187;49.412;20.956;2023-09-07T12:45:59;95967.03;;;20.94;82.70
22047;BME280;11187;49.412;20.956;2023-09-07T12:48:52;95969.72;;;20.92;83.64
22047;BME280;11187;49.412;20.956;2023-09-07T12:51:26;95967.25;;;20.89;84.18
22047;BME280;11187;49.412;20.956;2023-09-07T12:54:12;95962.25;;;20.84;84.55
22047;BME280;11187;49.412;20.956;2023-09-07T12:56:46;95969.22;;;20.84;84.56
22047;BME280;11187;49.412;20.956;2023-09-07T12:59:32;95962.38;;;20.81;83.47
22047;BME280;11187;49.412;20.956;2023-09-07T13:02:09;95959.00;;;20.79;83.89
22047;BME280;11187;49.412;20.956;2023-09-07T13:04:56;95966.88;;;20.78;85.21
22047;BME280;11187;49.412;20.956;2023-09-07T13:07:29;95961.75;;;20.76;84.30
22047;BME280;11187;49.412;20.956;2023-09-07T13:10:16;95962.66;;;20.75;84.25
22047;BME280;11187;49.412;20.956;2023-09-07T13:12:49;95959.22;;;20.75;85.53
22047;BME280;11187;49.412;20.956;2023-09-07T13:15:36;95958.44;;;20.73;85.32
22047;BME280;11187;49.412;20.956;2023-09-07T13:18:09;95953.31;;;20.71;85.60
22047;BME280;11187;49.412;20.956;2023-09-07T13:20:56;95949.84;;;20.71;85.10
22047;BME280;11187;49.412;20.956;2023-09-07T13:23:32;95953.31;;;20.71;85.88
22047;BME280;11187;49.412;20.956;2023-09-07T13:26:21;95962.97;;;20.69;86.13
22047;BME280;11187;49.412;20.956;2023-09-07T13:28:54;95956.97;;;20.67;86.25
22047;BME280;11187;49.412;20.956;2023-09-07T13:31:42;95961.34;;;20.67;84.91
22047;BME280;11187;49.412;20.956;2023-09-07T13:34:15;95947.34;;;20.69;85.49
22047;BME280;11187;49.412;20.956;2023-09-07T13:37:09;95962.03;;;20.70;86.43
22047;BME280;11187;49.412;20.956;2023-09-07T13:39:42;95959.56;;;20.67;85.29
22047;BME280;11187;49.412;20.956;2023-09-07T13:42:36;95951.81;;;20.65;86.46
22047;BME280;11187;49.412;20.956;2023-09-07T13:45:30;95957.19;;;20.62;86.38
22047;BME280;11187;49.412;20.956;2023-09-07T13:48:04;95950.41;;;20.58;86.54
22047;BME280;11187;49.412;20.956;2023-09-07T13:50:51;95948.81;;;20.54;86.20
22047;BME280;11187;49.412;20.956;2023-09-07T13:53:24;95950.75;;;20.51;87.19
22047;BME280;11187;49.412;20.956;2023-09-07T13:56:11;95950.84;;;20.48;85.68
22047;BME280;11187;49.412;20.956;2023-09-07T13:58:44;95945.72;;;20.46;85.85
22047;BME280;11187;49.412;20.956;2023-09-07T14:01:31;95945.78;;;20.44;87.13
22047;BME280;11187;49.412;20.956;2023-09-07T14:04:04;95944.97;;;20.44;87.49
22047;BME280;11187;49.412;20.956;2023-09-07T14:06:59;95958.06;;;20.41;86.59
22047;BME280;11187;49.412;20.956;2023-09-07T14:09:54;95948.72;;;20.37;86.11
22047;BME280;11187;49.412;20.956;2023-09-07T14:12:27;95949.66;;;20.36;85.85
22047;BME280;11187;49.412;20.956;2023-09-07T14:15:21;95950.63;;;20.33;85.55
22047;BME280;11187;49.412;20.956;2023-09-07T14:18:15;95947.25;;;20.31;85.76
22047;BME280;11187;49.412;20.956;2023-09-07T14:20:48;95949.06;;;20.29;84.37